Updated09/07/2020 15:35 
 

GeoURL
free counters
Scottish Weather Network UK Weather Network Cumulus Top Weather Sites

Peebles Weather - Skymap

Raw Data, Raw Data Expanded

Ignore low humidity and Dew Point values. Something wrong with the sensor.
Daytime temperatures are in direct sunlight so may be higher than official air temperature values.
As with any other website, we log your IP address and browser type in the server logs for diagnostic reasons. Cookies are used to record visit time and gauges preferences. No personal information is stored or processed.

All times are in local time (GMT, or BST in summer) unless specified.

2020/07/09 14:20 EGPH 091420Z 04009KT 9999 FEW041 17/12 Q1013
20.3°C 0.0 mm 0.0 mm 0.0 mm 2.2 mph 3.1 mph 1009.3 hPa 52% X-Ray Solar Flare Level
Planetary K-Index
Planetary K-Index History
Station Warn Rain Snow Flood Wind Ltng Heat Cold Glob Moon Temp Rain 1h Rain Thu Rain 24h Wind 10m Gust Pressure Hum Proton Levels

m Waning Gibbous Comfortable F1-E F: A: Kp:0 SSN:0

SkyMap from Weather Underground


2020 07 09 15 35
Up
Click for Other Views

   
   
Star Chart courtesy: Weather Underground

SkyMap from Fourmilab


 

XHTML 1.1 | CSS